Terminal Aerodrome Forecast
Issued by NWS

Home | Current Version | Previous Version | Text Only | Print | Product List | Glossary On
Versions: 1 2 3 4 5 6 7 8 9 10 11 12 13 14 15 16 17
000
FTUS45 KTFX 182300
TAFHLN
TAF
KHLN 182327Z 1900/1924 27005KT P6SM BKN080
     FM190700 VRB03KT P6SM VCFG SCT008 SCT110
     FM191800 VRB05KT P6SM VCSH SCT050 OVC070=

USA.gov is the U.S. government's official web portal to all federal, state and local government web resources and services.